createdAt,value
2022-10-04T00:01:58.390Z,3.55
2022-10-04T00:04:44.474Z,3.53
2022-10-04T00:07:13.611Z,3.40
2022-10-04T00:09:47.832Z,3.03
2022-10-04T00:12:38.139Z,3.28
2022-10-04T00:15:25.794Z,3.30
2022-10-04T00:18:21.479Z,3.72
2022-10-04T00:20:51.048Z,3.40
2022-10-04T00:23:23.348Z,3.75
2022-10-04T00:25:51.091Z,3.72
2022-10-04T00:28:20.812Z,4.15
2022-10-04T00:31:09.531Z,2.80
2022-10-04T00:33:38.627Z,2.67
2022-10-04T00:36:23.791Z,3.22
2022-10-04T00:39:08.486Z,3.05
2022-10-04T00:41:54.350Z,3.25
2022-10-04T00:44:38.985Z,2.95
2022-10-04T00:47:21.446Z,3.10
2022-10-04T00:49:51.591Z,3.15
2022-10-04T00:52:26.375Z,3.15
2022-10-04T00:54:57.969Z,3.00
2022-10-04T00:57:29.755Z,3.05
2022-10-04T00:59:59.570Z,2.92
2022-10-04T01:02:29.828Z,3.50
2022-10-04T01:05:10.636Z,3.80
2022-10-04T01:07:46.482Z,3.35
2022-10-04T01:10:25.413Z,3.45
2022-10-04T01:13:04.488Z,3.83
2022-10-04T01:15:56.638Z,3.85
2022-10-04T01:18:22.923Z,3.60
2022-10-04T01:21:03.578Z,3.38
2022-10-04T01:23:45.712Z,3.30
2022-10-04T01:26:30.329Z,3.42
2022-10-04T01:28:58.936Z,3.05
2022-10-04T01:31:29.811Z,3.13
2022-10-04T01:33:56.829Z,3.05
2022-10-04T01:36:23.656Z,3.13
2022-10-04T01:38:50.820Z,3.28
2022-10-04T01:41:25.263Z,3.33
2022-10-04T01:43:58.326Z,3.92
2022-10-04T01:46:33.426Z,3.13
2022-10-04T01:49:11.807Z,3.30
2022-10-04T01:51:49.912Z,3.42
2022-10-04T01:54:20.446Z,3.42
2022-10-04T01:56:55.874Z,3.35
2022-10-04T01:59:27.996Z,3.30
2022-10-04T02:02:05.704Z,3.15
2022-10-04T02:04:35.574Z,3.60
2022-10-04T02:07:04.203Z,3.17
2022-10-04T02:09:34.075Z,3.05
2022-10-04T02:12:01.535Z,3.47
2022-10-04T02:14:33.143Z,3.10
2022-10-04T02:17:03.119Z,3.45
2022-10-04T02:19:39.543Z,3.60
2022-10-04T02:22:09.174Z,3.80
2022-10-04T02:24:41.103Z,3.33
2022-10-04T02:27:07.566Z,3.45
2022-10-04T02:29:34.323Z,3.75
2022-10-04T02:32:21.299Z,3.20
2022-10-04T02:34:47.948Z,3.80
2022-10-04T02:37:15.268Z,3.35
2022-10-04T02:39:49.990Z,3.20
2022-10-04T02:42:40.918Z,3.67
2022-10-04T02:45:43.072Z,4.00
2022-10-04T02:48:26.506Z,4.15
2022-10-04T02:50:55.824Z,3.67
2022-10-04T02:53:34.753Z,4.00
2022-10-04T02:56:02.619Z,4.20
2022-10-04T02:58:32.472Z,4.40
2022-10-04T03:01:00.640Z,4.70
2022-10-04T03:03:37.503Z,4.50
2022-10-04T03:06:15.575Z,4.20
2022-10-04T03:08:53.063Z,4.38
2022-10-04T03:11:24.795Z,4.47
2022-10-04T03:13:55.109Z,4.18
2022-10-04T03:16:22.577Z,4.60
2022-10-04T03:18:51.442Z,4.25
2022-10-04T03:21:20.844Z,5.57
2022-10-04T03:23:50.790Z,4.53
2022-10-04T03:26:36.454Z,5.05
2022-10-04T03:29:09.544Z,4.90
2022-10-04T03:31:42.816Z,5.13
2022-10-04T03:34:23.842Z,4.40
2022-10-04T03:36:56.043Z,4.70
2022-10-04T03:39:33.529Z,4.70
2022-10-04T03:42:10.358Z,5.05
2022-10-04T03:44:37.607Z,5.10
2022-10-04T03:47:13.042Z,4.80
2022-10-04T03:49:42.159Z,5.05
2022-10-04T03:52:20.033Z,4.82
2022-10-04T03:54:47.662Z,4.70
2022-10-04T03:57:14.150Z,4.78
2022-10-04T03:59:40.694Z,5.25
2022-10-04T04:02:36.293Z,4.93
2022-10-04T04:05:12.835Z,5.32
2022-10-04T04:07:45.777Z,5.20
2022-10-04T04:10:22.678Z,5.00
2022-10-04T04:12:58.040Z,4.80
2022-10-04T04:15:29.651Z,5.00
2022-10-04T04:17:59.792Z,4.97
2022-10-04T04:20:31.540Z,4.97
2022-10-04T04:23:02.007Z,5.22
2022-10-04T04:25:32.206Z,5.38
2022-10-04T04:28:12.153Z,5.15
2022-10-04T04:30:43.953Z,5.07
2022-10-04T04:33:22.974Z,5.45
2022-10-04T04:35:55.246Z,4.85
2022-10-04T04:38:24.446Z,5.38
2022-10-04T04:40:55.609Z,4.85
2022-10-04T04:43:26.730Z,5.90
2022-10-04T04:46:08.877Z,5.60
2022-10-04T04:48:45.077Z,5.18
2022-10-04T04:51:19.496Z,5.50
2022-10-04T04:53:47.733Z,5.40
2022-10-04T04:56:19.284Z,5.38
2022-10-04T04:58:48.436Z,5.50
2022-10-04T05:01:25.584Z,5.30
2022-10-04T05:04:05.506Z,5.18
2022-10-04T05:06:34.214Z,5.15
2022-10-04T05:09:00.912Z,5.63
2022-10-04T05:11:31.643Z,5.72
2022-10-04T05:14:03.158Z,5.80
2022-10-04T05:16:52.788Z,5.30
2022-10-04T05:19:28.456Z,5.95
2022-10-04T05:21:57.657Z,5.88
2022-10-04T05:24:28.222Z,6.32
2022-10-04T05:26:58.737Z,6.15
2022-10-04T05:29:28.275Z,6.28
2022-10-04T05:31:56.137Z,6.47
2022-10-04T05:34:29.124Z,6.13
2022-10-04T05:36:58.481Z,6.32
2022-10-04T05:39:33.231Z,6.20
2022-10-04T05:42:23.269Z,8.77
2022-10-04T05:44:54.695Z,6.35
2022-10-04T05:47:27.669Z,6.93
2022-10-04T05:49:59.995Z,6.65
2022-10-04T05:52:39.954Z,6.45
2022-10-04T05:55:12.141Z,7.00
2022-10-04T05:57:44.519Z,6.50
2022-10-04T06:00:20.891Z,6.47
2022-10-04T06:02:51.105Z,6.45
2022-10-04T06:05:28.910Z,7.05
2022-10-04T06:08:00.801Z,6.45
2022-10-04T06:10:42.190Z,6.50
2022-10-04T06:13:26.015Z,6.97
2022-10-04T06:16:12.677Z,6.47
2022-10-04T06:18:46.818Z,6.72
2022-10-04T06:21:24.402Z,6.50
2022-10-04T06:23:59.471Z,6.32
2022-10-04T06:26:33.591Z,6.77
2022-10-04T06:29:10.507Z,6.85
2022-10-04T06:31:58.638Z,6.65
2022-10-04T06:34:33.723Z,6.22
2022-10-04T06:37:33.120Z,7.13
2022-10-04T06:40:21.348Z,7.63
2022-10-04T06:43:16.499Z,6.47
2022-10-04T06:45:51.351Z,6.68
2022-10-04T06:48:23.631Z,6.78
2022-10-04T06:50:56.859Z,6.40
2022-10-04T06:53:46.574Z,6.07
2022-10-04T06:56:26.352Z,5.70
2022-10-04T06:59:31.693Z,5.90
2022-10-04T07:02:12.324Z,5.88
2022-10-04T07:05:07.942Z,6.57
2022-10-04T07:07:38.852Z,5.72
2022-10-04T07:10:17.190Z,5.53
2022-10-04T07:13:09.477Z,5.30
2022-10-04T07:15:59.514Z,5.57
2022-10-04T07:18:45.241Z,5.30
2022-10-04T07:21:16.534Z,5.10
2022-10-04T07:23:45.143Z,5.65
2022-10-04T07:26:39.088Z,5.38
2022-10-04T07:29:28.265Z,5.05
2022-10-04T07:32:32.588Z,4.88
2022-10-04T07:35:14.082Z,4.57
2022-10-04T07:38:03.391Z,4.80
2022-10-04T07:40:35.942Z,5.20
2022-10-04T07:43:26.876Z,5.45
2022-10-04T07:46:03.503Z,5.35
2022-10-04T07:48:30.001Z,5.38
2022-10-04T07:51:02.685Z,5.13
2022-10-04T07:53:46.894Z,5.20
2022-10-04T07:56:21.065Z,5.07
2022-10-04T07:59:04.305Z,4.60
2022-10-04T08:01:38.462Z,5.00
2022-10-04T08:04:04.850Z,4.68
2022-10-04T08:06:37.816Z,5.30
2022-10-04T08:09:04.083Z,5.28
2022-10-04T08:11:44.424Z,4.95
2022-10-04T08:14:36.149Z,5.40
2022-10-04T08:17:15.191Z,5.07
2022-10-04T08:19:54.333Z,4.70
2022-10-04T08:22:30.224Z,4.95
2022-10-04T08:28:07.596Z,4.38
2022-10-04T08:30:52.627Z,5.05
2022-10-04T08:34:01.157Z,5.05
2022-10-04T08:36:52.565Z,4.57
2022-10-04T08:39:52.574Z,5.00
2022-10-04T08:42:34.045Z,4.47
2022-10-04T08:45:21.031Z,5.15
2022-10-04T08:48:11.517Z,4.50
2022-10-04T08:51:01.098Z,5.10
2022-10-04T08:53:30.435Z,4.78
2022-10-04T08:56:31.479Z,5.00
2022-10-04T08:59:22.383Z,5.03
2022-10-04T09:02:25.111Z,4.50
2022-10-04T09:05:14.540Z,4.38
2022-10-04T09:08:04.248Z,4.20
2022-10-04T09:10:57.246Z,4.32
2022-10-04T09:13:38.059Z,4.47
2022-10-04T09:16:17.200Z,4.22
2022-10-04T09:19:06.171Z,4.22
2022-10-04T09:22:01.642Z,4.38
2022-10-04T09:24:53.487Z,4.55
2022-10-04T09:27:55.684Z,4.20
2022-10-04T09:30:33.053Z,3.83
2022-10-04T09:33:14.219Z,4.00
2022-10-04T09:35:54.503Z,4.40
2022-10-04T09:38:44.617Z,4.07
2022-10-04T09:41:26.818Z,3.85
2022-10-04T09:44:30.964Z,3.78
2022-10-04T09:47:14.057Z,3.90
2022-10-04T09:49:59.302Z,3.38
2022-10-04T09:52:39.883Z,3.90
2022-10-04T09:55:23.488Z,3.55
2022-10-04T09:58:22.339Z,3.70
2022-10-04T10:00:56.764Z,3.75
2022-10-04T10:03:41.848Z,3.42
2022-10-04T10:06:48.624Z,3.10
2022-10-04T10:09:51.799Z,3.15
2022-10-04T10:12:42.623Z,2.80
2022-10-04T10:15:24.895Z,3.50
2022-10-04T10:17:57.942Z,2.83
2022-10-04T10:20:48.107Z,3.28
2022-10-04T10:24:01.932Z,2.70
2022-10-04T10:26:52.594Z,2.78
2022-10-04T10:29:40.777Z,2.88
2022-10-04T10:32:19.045Z,3.13
2022-10-04T10:35:19.521Z,2.70
2022-10-04T10:37:45.785Z,2.65
2022-10-04T10:40:40.954Z,2.95
2022-10-04T10:43:53.042Z,2.97
2022-10-04T10:46:42.739Z,3.00
2022-10-04T10:49:21.988Z,2.90
2022-10-04T10:52:25.423Z,2.80
2022-10-04T10:55:13.187Z,2.63
2022-10-04T10:57:58.562Z,2.83
2022-10-04T11:00:39.948Z,2.50
2022-10-04T11:03:21.818Z,2.83
2022-10-04T11:06:01.938Z,2.70
2022-10-04T11:09:06.441Z,2.60
2022-10-04T11:12:05.568Z,2.70
2022-10-04T11:14:47.108Z,2.83
2022-10-04T11:17:33.459Z,2.65
2022-10-04T11:20:05.193Z,2.58
2022-10-04T11:22:57.447Z,3.28
2022-10-04T11:25:34.832Z,3.45
2022-10-04T11:28:39.098Z,2.58
2022-10-04T11:31:27.288Z,2.67
2022-10-04T11:34:16.376Z,2.88
2022-10-04T11:37:13.779Z,2.65
2022-10-04T11:42:28.651Z,2.70
2022-10-04T11:45:19.645Z,2.97
2022-10-04T11:47:51.634Z,2.88
2022-10-04T11:50:29.577Z,3.05
2022-10-04T11:53:27.177Z,3.40
2022-10-04T11:56:29.633Z,3.05
2022-10-04T11:59:08.499Z,3.00
2022-10-04T12:02:16.879Z,3.00
2022-10-04T12:04:54.079Z,2.80
2022-10-04T12:07:55.118Z,2.67
2022-10-04T12:10:29.058Z,3.05
2022-10-04T12:13:04.600Z,3.38
2022-10-04T12:15:41.641Z,3.08
2022-10-04T12:18:33.039Z,3.53
2022-10-04T12:21:28.961Z,2.65
2022-10-04T12:24:23.189Z,3.53
2022-10-04T12:27:02.743Z,2.92
2022-10-04T12:30:00.594Z,3.67
2022-10-04T12:32:45.146Z,3.38
2022-10-04T12:35:14.470Z,3.05
2022-10-04T12:38:19.833Z,2.78
2022-10-04T12:41:17.771Z,3.90
2022-10-04T12:44:03.358Z,3.05
2022-10-04T12:47:00.928Z,3.10
2022-10-04T12:50:09.594Z,2.85
2022-10-04T12:52:54.327Z,4.28
2022-10-04T12:55:43.500Z,4.07
2022-10-04T12:58:30.371Z,3.47
2022-10-04T13:01:11.085Z,2.80
2022-10-04T13:04:29.132Z,2.70
2022-10-04T13:07:14.071Z,2.83
2022-10-04T13:10:26.001Z,3.20
2022-10-04T13:13:16.980Z,2.78
2022-10-04T13:19:21.100Z,2.70
2022-10-04T13:22:06.450Z,3.50
2022-10-04T13:24:56.094Z,3.05
2022-10-04T13:27:38.878Z,2.83
2022-10-04T13:30:29.486Z,2.63
2022-10-04T13:33:09.915Z,2.45
2022-10-04T13:35:59.931Z,2.55
2022-10-04T13:39:07.223Z,2.80
2022-10-04T13:44:33.354Z,2.45
2022-10-04T13:47:20.967Z,2.50
2022-10-04T13:50:17.471Z,2.42
2022-10-04T13:53:14.874Z,2.38
2022-10-04T13:56:18.609Z,2.13
2022-10-04T13:58:44.899Z,2.28
2022-10-04T14:01:29.935Z,2.72
2022-10-04T14:04:14.708Z,2.70
2022-10-04T14:07:13.608Z,2.42
2022-10-04T14:10:13.202Z,2.42
2022-10-04T14:12:59.446Z,2.35
2022-10-04T14:15:28.472Z,2.45
2022-10-04T14:18:35.855Z,1.92
2022-10-04T14:24:15.088Z,1.85
2022-10-04T14:27:03.117Z,2.10
2022-10-04T14:29:52.668Z,2.28
2022-10-04T14:32:39.472Z,2.65
2022-10-04T14:35:30.046Z,1.73
2022-10-04T14:38:06.460Z,2.70
2022-10-04T14:40:44.910Z,2.20
2022-10-04T14:43:49.003Z,2.05
2022-10-04T14:46:33.719Z,2.13
2022-10-04T14:49:15.712Z,2.20
2022-10-04T14:51:51.212Z,2.40
2022-10-04T14:54:26.861Z,2.05
2022-10-04T14:57:03.443Z,3.05
2022-10-04T14:59:59.061Z,2.25
2022-10-04T15:02:31.729Z,2.30
2022-10-04T15:05:29.904Z,2.08
2022-10-04T15:08:15.731Z,2.25
2022-10-04T15:10:51.991Z,2.10
2022-10-04T15:13:39.671Z,2.30
2022-10-04T15:16:27.872Z,2.40
2022-10-04T15:19:00.116Z,2.30
2022-10-04T15:21:45.390Z,2.65
2022-10-04T15:24:17.883Z,2.15
2022-10-04T15:27:14.773Z,2.55
2022-10-04T15:32:35.875Z,1.95
2022-10-04T15:37:44.274Z,1.95
2022-10-04T15:40:58.035Z,2.17
2022-10-04T15:43:34.234Z,1.70
2022-10-04T15:46:24.105Z,2.22
2022-10-04T15:49:15.602Z,2.10
2022-10-04T15:52:07.268Z,2.28
2022-10-04T15:55:03.279Z,2.42
2022-10-04T15:57:35.883Z,2.07
2022-10-04T16:00:10.412Z,2.97
2022-10-04T16:03:27.517Z,2.92
2022-10-04T16:06:21.552Z,3.33
2022-10-04T16:09:06.562Z,2.55
2022-10-04T16:12:02.605Z,2.40
2022-10-04T16:15:01.235Z,2.50
2022-10-04T16:18:00.138Z,3.15
2022-10-04T16:20:48.240Z,2.72
2022-10-04T16:23:34.403Z,2.55
2022-10-04T16:26:16.000Z,2.33
2022-10-04T16:29:27.986Z,2.20
2022-10-04T16:32:04.046Z,2.50
2022-10-04T16:34:37.220Z,3.28
2022-10-04T16:37:09.555Z,4.03
2022-10-04T16:39:56.663Z,3.15
2022-10-04T16:42:29.414Z,3.67
2022-10-04T16:45:19.490Z,3.20
2022-10-04T16:47:48.662Z,3.30
2022-10-04T16:51:04.334Z,2.40
2022-10-04T16:53:36.667Z,3.20
2022-10-04T16:56:23.007Z,3.28
2022-10-04T16:59:04.267Z,3.10
2022-10-04T17:01:38.371Z,3.15
2022-10-04T17:04:04.823Z,2.40
2022-10-04T17:06:51.539Z,2.65
2022-10-04T17:09:43.286Z,3.05
2022-10-04T17:12:35.497Z,2.78
2022-10-04T17:15:14.031Z,3.15
2022-10-04T17:18:12.427Z,2.60
2022-10-04T17:20:42.973Z,2.53
2022-10-04T17:23:51.371Z,2.90
2022-10-04T17:26:40.802Z,2.72
2022-10-04T17:29:40.967Z,2.53
2022-10-04T17:32:16.390Z,2.63
2022-10-04T17:35:09.803Z,2.45
2022-10-04T17:38:11.834Z,2.80
2022-10-04T17:41:19.592Z,3.08
2022-10-04T17:43:55.998Z,2.97
2022-10-04T17:46:40.929Z,2.30
2022-10-04T17:49:41.788Z,2.72
2022-10-04T17:52:41.360Z,2.55
2022-10-04T17:55:18.213Z,2.45
2022-10-04T17:58:08.064Z,2.92
2022-10-04T18:01:15.242Z,3.40
2022-10-04T18:03:47.221Z,3.80
2022-10-04T18:06:25.397Z,3.40
2022-10-04T18:09:02.969Z,3.45
2022-10-04T18:11:47.070Z,3.97
2022-10-04T18:14:42.477Z,4.13
2022-10-04T18:17:23.010Z,4.65
2022-10-04T18:20:17.423Z,4.45
2022-10-04T18:22:49.890Z,5.05
2022-10-04T18:25:26.739Z,5.13
2022-10-04T18:28:19.848Z,5.00
2022-10-04T18:30:46.144Z,5.50
2022-10-04T18:33:16.422Z,4.95
2022-10-04T18:36:14.692Z,4.97
2022-10-04T18:38:43.579Z,4.82
2022-10-04T18:41:16.149Z,5.18
2022-10-04T18:43:51.830Z,5.93
2022-10-04T18:46:22.648Z,6.78
2022-10-04T18:49:08.630Z,6.70
2022-10-04T18:51:51.084Z,6.32
2022-10-04T18:54:51.755Z,6.72
2022-10-04T18:57:56.351Z,6.15
2022-10-04T19:00:42.367Z,6.18
2022-10-04T19:03:37.160Z,6.50
2022-10-04T19:06:21.006Z,6.00
2022-10-04T19:08:59.429Z,6.30
2022-10-04T19:11:38.338Z,6.47
2022-10-04T19:14:25.488Z,5.88
2022-10-04T19:17:01.626Z,5.82
2022-10-04T19:19:46.107Z,6.15
2022-10-04T19:22:29.390Z,6.03
2022-10-04T19:25:17.750Z,6.35
2022-10-04T19:28:00.727Z,6.18
2022-10-04T19:30:54.034Z,7.43
2022-10-04T19:33:35.962Z,7.00
2022-10-04T19:36:11.796Z,7.50
2022-10-04T19:38:52.371Z,7.40
2022-10-04T19:41:56.385Z,7.50
2022-10-04T19:44:36.775Z,7.47
2022-10-04T19:47:24.983Z,7.32
2022-10-04T19:50:06.587Z,7.10
2022-10-04T19:52:46.668Z,6.45
2022-10-04T19:55:43.731Z,6.85
2022-10-04T19:58:21.387Z,6.25
2022-10-04T20:00:49.363Z,6.90
2022-10-04T20:03:16.447Z,6.65
2022-10-04T20:05:48.643Z,7.00
2022-10-04T20:08:17.137Z,7.28
2022-10-04T20:10:43.791Z,7.03
2022-10-04T20:13:21.404Z,6.95
2022-10-04T20:15:53.203Z,6.95
2022-10-04T20:18:31.733Z,6.55
2022-10-04T20:20:59.974Z,6.88
2022-10-04T20:23:41.599Z,6.20
2022-10-04T20:26:10.022Z,5.90
2022-10-04T20:28:40.562Z,7.00
2022-10-04T20:31:08.839Z,7.93
2022-10-04T20:33:36.904Z,8.55
2022-10-04T20:36:09.218Z,8.68
2022-10-04T20:38:59.305Z,8.20
2022-10-04T20:41:28.461Z,7.28
2022-10-04T20:43:56.842Z,7.20
2022-10-04T20:46:25.804Z,6.60
2022-10-04T20:48:54.261Z,6.32
2022-10-04T20:51:22.646Z,7.50
2022-10-04T20:53:52.373Z,6.47
2022-10-04T20:56:33.176Z,6.38
2022-10-04T20:59:01.714Z,6.43
2022-10-04T21:01:36.963Z,6.60
2022-10-04T21:04:29.973Z,6.63
2022-10-04T21:07:02.246Z,6.15
2022-10-04T21:09:31.019Z,6.82
2022-10-04T21:11:58.722Z,6.07
2022-10-04T21:14:27.819Z,6.15
2022-10-04T21:17:01.464Z,5.53
2022-10-04T21:19:42.996Z,5.90
2022-10-04T21:22:29.571Z,5.45
2022-10-04T21:24:57.546Z,5.65
2022-10-04T21:27:32.543Z,6.13
2022-10-04T21:30:00.790Z,5.72
2022-10-04T21:32:32.338Z,6.38
2022-10-04T21:34:58.686Z,5.97
2022-10-04T21:37:25.081Z,6.57
2022-10-04T21:39:51.471Z,6.28
2022-10-04T21:42:17.973Z,6.22
2022-10-04T21:44:44.543Z,6.43
2022-10-04T21:47:11.038Z,6.05
2022-10-04T21:49:37.398Z,6.05
2022-10-04T21:52:04.180Z,6.30
2022-10-04T21:54:30.618Z,6.32
2022-10-04T21:56:57.035Z,6.25
2022-10-04T21:59:23.811Z,6.35
2022-10-04T22:01:50.321Z,6.53
2022-10-04T22:04:16.769Z,6.88
2022-10-04T22:06:44.039Z,6.47
2022-10-04T22:09:11.012Z,6.40
2022-10-04T22:11:37.639Z,6.43
2022-10-04T22:14:04.348Z,7.00
2022-10-04T22:16:30.864Z,6.60
2022-10-04T22:18:57.254Z,6.65
2022-10-04T22:21:23.627Z,7.07
2022-10-04T22:23:49.983Z,7.20
2022-10-04T22:26:19.342Z,6.78
2022-10-04T22:28:54.846Z,6.97
2022-10-04T22:31:25.863Z,6.88
2022-10-04T22:33:53.515Z,7.18
2022-10-04T22:36:39.137Z,6.60
2022-10-04T22:39:08.563Z,6.65
2022-10-04T22:41:40.930Z,6.85
2022-10-04T22:44:23.351Z,6.93
2022-10-04T22:46:52.814Z,7.47
2022-10-04T22:49:33.980Z,6.93
2022-10-04T22:52:03.450Z,7.68
2022-10-04T22:54:34.821Z,6.72
2022-10-04T22:57:01.195Z,6.88
2022-10-04T22:59:35.817Z,6.88
2022-10-04T23:02:16.188Z,6.93
2022-10-04T23:05:16.667Z,7.60
2022-10-04T23:07:44.436Z,6.68
2022-10-04T23:10:12.723Z,7.00
2022-10-04T23:12:40.672Z,7.15
2022-10-04T23:15:07.897Z,7.38
2022-10-04T23:17:37.160Z,6.85
2022-10-04T23:20:09.698Z,7.13
2022-10-04T23:22:36.058Z,7.25
2022-10-04T23:25:02.460Z,7.43
2022-10-04T23:27:29.204Z,6.90
2022-10-04T23:30:02.767Z,6.72
2022-10-04T23:32:31.739Z,7.15
2022-10-04T23:35:00.512Z,8.10
2022-10-04T23:37:30.868Z,7.20
2022-10-04T23:39:57.253Z,7.03
2022-10-04T23:42:31.765Z,7.35
2022-10-04T23:44:59.907Z,8.38
2022-10-04T23:47:37.143Z,7.70
2022-10-04T23:50:27.594Z,7.65
2022-10-04T23:52:58.110Z,7.72
2022-10-04T23:55:28.998Z,7.35
2022-10-04T23:57:55.992Z,6.88
